Latest Weather Observations for Cowra

IDN60801

Issued at 6:05 pm EST Saturday 2 August 2014 (issued every 30 minutes, with the page automatically refreshed every 10 minutes)

About weather observations | Map of weather stations | Latest weather observations for NSW | Other Formats
Station Details ID: 065111 Name: COWRA AIRPORT AWS Lat: -33.84 Lon: 148.65 Height: 296.5 m
Data from the previous 72 hours. | See also: Recent months at Cowra
Date/Time
EST
Temp
°C
App
Temp
°C
Dew
Point
Rel
Hum
%
Delta-T
°C
Wind Press
QNH
hPa
Press
MSL
hPa
Rain
since 9 am
mm
Dir
 
Spd
km/h
Gust
km/h
Spd
kts
Gust
kts
02/06:00pm 6.7 3.3 2.0 72 1.9 SSW 9 11 5 6 1029.6 1030.3 0.0
02/05:30pm 7.5 4.6 1.4 65 2.5 SW 6 7 3 4 1029.2 - 0.0
02/05:00pm 8.9 5.6 2.3 63 2.8 SW 9 11 5 6 1028.9 - 0.0
02/04:30pm 9.7 6.6 1.1 55 3.6 SW 7 11 4 6 1028.7 - 0.0
02/04:00pm 10.0 6.8 0.9 53 3.8 S 7 13 4 7 1028.6 - 0.0
02/03:30pm 9.5 6.4 1.2 56 3.5 SSW 7 11 4 6 1028.4 - 0.0
02/03:00pm 9.4 5.9 1.3 57 3.4 SSW 9 15 5 8 1028.2 1028.8 0.0
02/02:30pm 9.8 6.3 1.5 56 3.5 WSW 9 13 5 7 1027.9 - 0.0
02/02:00pm 9.2 4.9 1.1 57 3.4 SSW 13 15 7 8 1028.1 - 0.0
02/01:30pm 9.1 5.6 1.5 59 3.2 S 9 22 5 12 1028.0 - 0.0
02/01:00pm 8.4 4.5 1.1 60 3.0 SW 11 17 6 9 1028.0 - 0.0
02/12:30pm 7.8 4.7 1.2 63 2.7 SE 7 13 4 7 1028.3 - 0.0
02/12:00pm 7.9 4.4 1.3 63 2.7 S 9 17 5 9 1028.5 1029.1 0.0
02/11:30am 7.2 3.6 0.9 64 2.6 S 9 15 5 8 1028.7 - 0.0
02/11:00am 6.9 4.0 1.4 68 2.3 SW 6 11 3 6 1029.0 - 0.0
02/10:30am 6.3 2.8 1.0 69 2.1 SW 9 13 5 7 1028.9 - 0.0
02/10:00am 5.5 2.0 1.2 74 1.7 WSW 9 15 5 8 1028.6 - 0.0
02/09:30am 5.0 1.4 0.4 72 1.8 SW 9 15 5 8 1028.2 - 0.0
02/09:00am 4.7 0.7 0.8 76 1.5 SSW 11 13 6 7 1027.7 1028.3 1.6
02/08:30am 4.2 2.0 1.1 80 1.2 SSE 2 6 1 3 1027.4 - 1.6
02/08:00am 3.0 1.2 0.9 86 0.8 CALM 0 6 0 3 1027.0 - 1.6
02/07:30am 1.4 -1.7 0.2 92 0.4 W 6 7 3 4 1026.4 - 1.6
02/07:00am 0.7 -2.5 -0.4 92 0.4 NW 6 9 3 5 1025.8 - 1.6
02/06:30am 1.6 -1.2 -0.3 87 0.7 W 4 7 2 4 1025.2 - 1.6
02/06:00am 3.6 0.4 1.0 83 1.0 S 7 9 4 5 1024.7 1025.3 1.6
02/05:30am 4.0 0.5 1.2 82 1.1 SW 9 11 5 6 1024.4 - 1.6
02/05:00am 3.9 1.1 1.8 86 0.8 SW 6 9 3 5 1023.9 - 1.6
02/04:30am 3.9 -0.3 1.6 85 0.9 WSW 13 19 7 10 1023.5 - 1.6
02/04:00am 3.7 -0.1 1.7 87 0.8 WSW 11 13 6 7 1022.8 - 1.6
02/03:30am 3.7 -0.2 1.3 84 0.9 SW 11 15 6 8 1022.8 - 1.6
02/03:00am 3.9 -1.1 1.6 85 0.9 SW 17 20 9 11 1022.7 1023.3 1.6
02/02:30am 4.0 0.2 2.0 87 0.8 S 11 20 6 11 1022.5 - 1.6
02/02:00am 3.6 -0.7 1.2 84 0.9 SSW 13 17 7 9 1022.1 - 1.6
02/01:30am 4.2 -0.4 1.7 84 1.0 SW 15 30 8 16 1021.9 - 1.6
02/01:00am 4.5 -1.1 1.5 81 1.2 WSW 20 30 11 16 1021.5 - 1.6
02/12:30am 4.8 -0.5 2.0 82 1.1 WSW 19 32 10 17 1021.7 - 1.6
02/12:00am 4.9 -0.6 1.9 81 1.2 W 20 32 11 17 1021.4 1022.0 1.6
 
Date/Time
EST
Temp
°C
App
Temp
°C
Dew
Point
Rel
Hum
%
Delta-T
°C
Wind Press
QNH
hPa
Press
MSL
hPa
Rain
since 9 am
mm
Dir
 
Spd
km/h
Gust
km/h
Spd
kts
Gust
kts
01/11:30pm 5.5 1.0 2.2 79 1.4 SW 15 24 8 13 1021.2 - 1.6
01/11:00pm 5.8 2.1 2.3 78 1.5 W 11 17 6 9 1020.8 - 1.6
01/10:30pm 5.5 1.1 2.7 82 1.2 W 15 26 8 14 1020.4 - 1.6
01/10:00pm 6.0 1.6 2.8 80 1.3 W 15 20 8 11 1019.9 - 1.6
01/09:30pm 6.0 1.2 2.5 78 1.5 W 17 24 9 13 1019.4 - 1.6
01/09:00pm 6.6 2.2 2.5 75 1.7 WNW 15 20 8 11 1019.0 1019.5 1.6
01/08:30pm 6.4 4.0 2.3 75 1.7 WSW 4 11 2 6 1018.5 - 1.6
01/08:00pm 6.3 2.7 2.8 78 1.5 NW 11 19 6 10 1018.1 - 1.6
01/07:30pm 5.1 2.3 1.9 80 1.3 ENE 6 9 3 5 1017.6 - 1.6
01/07:00pm 5.4 0.6 2.8 83 1.1 SW 17 26 9 14 1016.8 - 1.6
01/06:30pm 5.4 0.6 2.6 82 1.2 WNW 17 24 9 13 1016.2 - 1.6
01/06:05pm 6.7 -0.5 3.0 77 1.6 WNW 30 48 16 26 1015.7 - 1.6
01/06:00pm 6.4 0.7 2.7 77 1.6 WNW 22 41 12 22 1015.5 1016.0 1.6
01/05:30pm 5.6 1.1 2.4 80 1.3 WNW 15 22 8 12 1014.6 - 1.6
01/05:00pm 6.2 -0.6 3.2 81 1.3 W 28 57 15 31 1014.3 - 1.6
01/04:52pm 6.5 -1.8 2.4 75 1.7 W 35 57 19 31 1014.5 - 1.4
01/04:30pm 7.5 1.4 2.8 72 2.0 W 24 33 13 18 1013.2 - 1.0
01/04:00pm 8.9 1.5 2.0 62 2.9 WNW 30 43 16 23 1012.8 - 0.6
01/03:30pm 8.6 3.7 5.0 78 1.6 W 20 26 11 14 1012.3 - 0.6
01/03:14pm 6.9 -0.6 3.7 80 1.4 WSW 32 50 17 27 1012.5 - 0.6
01/03:00pm 10.0 4.2 2.1 58 3.4 WNW 22 35 12 19 1012.0 1012.6 0.0
01/02:30pm 11.4 3.6 2.7 55 3.8 W 33 44 18 24 1012.1 - 0.0
01/02:12pm 9.7 1.6 0.9 54 3.7 NW 33 59 18 32 1011.9 - 0.0
01/02:00pm 10.3 3.5 0.9 52 3.9 W 26 39 14 21 1011.7 - 0.0
01/01:30pm 10.4 1.7 -0.7 46 4.5 WNW 35 44 19 24 1011.8 - 0.0
01/01:00pm 9.7 2.0 0.1 51 3.9 W 30 37 16 20 1011.8 - 0.0
01/12:30pm 10.6 2.4 -0.8 45 4.6 WNW 32 43 17 23 1011.9 - 0.0
01/12:00pm 10.2 4.0 2.3 58 3.4 WSW 24 32 13 17 1012.1 1012.8 0.0
01/11:30am 9.7 3.2 0.3 52 3.9 W 24 35 13 19 1012.6 - 0.0
01/11:00am 10.2 4.5 2.6 59 3.3 SW 22 30 12 16 1012.8 - 0.0
01/10:30am 9.1 2.2 2.7 64 2.8 WSW 28 37 15 20 1012.9 - 0.0
01/10:00am 8.8 1.9 2.4 64 2.7 SW 28 37 15 20 1012.7 - 0.0
01/09:30am 8.4 1.9 2.8 68 2.4 WSW 26 35 14 19 1012.5 - 0.0
01/09:00am 8.6 3.7 4.0 73 2.0 WSW 19 30 10 16 1012.1 1012.7 0.0
01/08:30am 8.0 2.4 3.3 72 2.0 W 22 32 12 17 1011.6 - 0.0
01/08:00am 6.8 4.1 5.6 92 0.5 NW 9 11 5 6 1011.3 - 0.0
01/07:30am 6.9 3.1 5.7 92 0.5 NNW 15 19 8 10 1010.8 - 0.0
01/07:00am 6.9 3.0 5.2 89 0.8 N 15 19 8 10 1010.2 - 0.0
01/06:30am 7.3 4.4 4.6 83 1.2 NNW 9 11 5 6 1009.7 - 0.0
01/06:00am 8.3 4.0 5.1 80 1.5 W 17 26 9 14 1009.7 1010.3 0.0
01/05:30am 8.5 5.2 4.7 77 1.7 WNW 11 20 6 11 1009.6 - 0.0
01/05:00am 8.0 5.1 4.8 80 1.4 WSW 9 13 5 7 1009.3 - 0.0
01/04:30am 7.8 3.8 4.7 81 1.4 W 15 20 8 11 1009.1 - 0.0
01/04:00am 6.7 4.0 3.7 81 1.3 WNW 7 11 4 6 1008.5 - 0.0
01/03:30am 8.4 4.3 4.6 77 1.7 WSW 15 20 8 11 1008.6 - 0.0
01/03:00am 8.5 5.9 4.1 74 2.0 W 7 11 4 6 1008.4 1008.9 0.0
01/02:30am 10.0 5.0 4.4 68 2.5 WSW 20 28 11 15 1008.1 - 0.0
01/02:00am 13.2 6.6 -0.1 40 5.6 W 24 35 13 19 1007.4 - 0.0
01/01:51am 13.9 5.8 -0.2 38 6.0 W 32 50 17 27 1007.3 - 0.0
01/01:30am 14.4 7.6 0.6 39 6.0 NNW 26 39 14 21 1006.1 - 0.0
01/01:00am 12.1 6.8 1.7 49 4.5 N 19 22 10 12 1006.5 - 0.0
01/12:30am 10.9 5.8 0.9 50 4.2 NW 17 20 9 11 1007.0 - 0.0
01/12:00am 10.3 6.1 1.4 54 3.8 W 13 17 7 9 1007.2 1007.8 0.0
 
Date/Time
EST
Temp
°C
App
Temp
°C
Dew
Point
Rel
Hum
%
Delta-T
°C
Wind Press
QNH
hPa
Press
MSL
hPa
Rain
since 9 am
mm
Dir
 
Spd
km/h
Gust
km/h
Spd
kts
Gust
kts
31/11:30pm 8.9 5.0 1.3 59 3.2 NW 11 15 6 8 1007.6 - 0.0
31/11:00pm 9.2 5.1 2.1 61 3.0 W 13 17 7 9 1007.8 - 0.0
31/10:30pm 8.9 5.6 2.5 64 2.7 NW 9 15 5 8 1008.2 - 0.0
31/10:00pm 8.7 5.0 2.1 63 2.8 NNW 11 17 6 9 1008.3 - 0.0
31/09:30pm 11.2 6.0 3.3 58 3.5 N 20 26 11 14 1008.3 - 0.0
31/09:00pm 10.3 5.1 3.6 63 3.0 N 20 24 11 13 1008.1 1008.7 0.0
31/08:30pm 11.0 6.3 3.1 58 3.5 N 17 20 9 11 1008.4 - 0.0
31/08:00pm 12.9 7.4 4.1 55 4.1 N 22 28 12 15 1008.1 - 0.0
31/07:30pm 12.4 7.5 4.9 60 3.5 N 20 24 11 13 1008.0 - 0.0
31/07:00pm 11.5 6.7 4.7 63 3.1 N 19 24 10 13 1008.1 - 0.0
31/06:30pm 11.8 7.0 4.8 62 3.2 N 19 22 10 12 1008.2 - 0.0
31/06:00pm 12.9 8.2 5.3 60 3.6 N 19 22 10 12 1008.1 1008.7 0.0
31/05:30pm 13.9 9.0 5.3 56 4.1 N 20 24 11 13 1008.0 - 0.0
31/05:00pm 16.9 11.3 5.5 47 5.6 N 24 30 13 16 1008.3 - 0.0
31/04:30pm 17.8 11.6 6.0 46 5.9 N 28 37 15 20 1008.5 - 0.0
31/04:00pm 18.5 12.8 6.7 46 6.0 N 26 37 14 20 1008.9 - 0.0
31/03:30pm 18.9 12.6 5.7 42 6.6 NNW 28 37 15 20 1009.4 - 0.0
31/03:00pm 19.2 11.5 5.3 40 6.9 NNW 35 48 19 26 1009.7 1010.4 0.0
31/02:30pm 19.4 10.4 4.7 38 7.2 NW 41 52 22 28 1010.1 - 0.0
31/02:03pm 19.5 11.0 3.2 34 7.8 NW 37 56 20 30 1010.2 - 0.0
31/02:00pm 19.8 11.9 4.3 36 7.6 NNW 35 52 19 28 1010.3 - 0.0
31/01:51pm 19.9 11.9 4.0 35 7.7 NNW 35 54 19 29 1010.4 - 0.0
31/01:30pm 20.0 12.7 4.5 36 7.6 NW 32 44 17 24 1010.9 - 0.0
31/01:00pm 19.6 11.1 3.3 34 7.8 NW 37 50 20 27 1011.6 - 0.0
31/12:30pm 19.6 12.5 5.3 39 7.1 NNW 32 46 17 25 1012.3 - 0.0
31/12:00pm 18.7 11.0 5.5 42 6.5 NW 35 43 19 23 1013.3 1013.9 0.0
31/11:30am 18.2 12.0 6.1 45 6.0 NW 28 39 15 21 1014.2 - 0.0
31/11:00am 16.2 11.9 7.9 58 4.2 NNW 20 26 11 14 1014.7 - 0.0
31/10:30am 15.5 10.9 8.0 61 3.8 NNW 22 26 12 14 1015.0 - 0.0
31/10:00am 14.2 9.6 8.2 67 3.0 NNW 22 30 12 16 1015.2 - 0.0
31/09:30am 12.5 8.8 7.8 73 2.3 NNW 17 20 9 11 1015.4 - 0.0
31/09:00am 10.6 7.0 6.7 77 1.9 NNW 15 17 8 9 1016.0 1016.6 0.0
31/08:30am 8.6 5.6 6.1 84 1.2 N 11 17 6 9 1016.2 - 0.0
31/08:00am 7.1 3.9 5.1 87 0.9 N 11 13 6 7 1016.3 - 0.0
31/07:30am 5.7 2.3 4.2 90 0.7 N 11 13 6 7 1016.3 - 0.0
31/07:00am 4.8 0.6 3.6 92 0.5 N 15 17 8 9 1016.3 - 0.0
31/06:30am 4.7 0.8 3.4 91 0.5 N 13 15 7 8 1016.3 - 0.0
31/06:00am 5.2 1.4 3.9 91 0.6 N 13 13 7 7 1016.2 1016.8 0.0
31/05:30am 4.8 0.9 3.3 90 0.6 N 13 13 7 7 1016.2 - 0.0
31/05:00am 5.4 2.1 4.5 94 0.4 N 11 13 6 7 1016.2 - 0.0
31/04:30am 4.7 0.9 3.8 94 0.4 N 13 13 7 7 1016.2 - 0.0
31/04:00am 5.0 0.9 4.6 97 0.2 N 15 15 8 8 1016.7 - 0.0
31/03:30am 5.0 1.0 4.9 99 0.0 N 15 17 8 9 1016.8 - 0.0
31/03:00am 4.6 0.5 4.5 99 0.0 N 15 17 8 9 1016.9 1017.5 0.0
31/02:30am 5.0 1.7 4.7 98 0.1 N 11 13 6 7 1017.2 - 0.0
31/02:00am 5.7 3.0 5.6 99 0.0 N 9 11 5 6 1017.3 - 0.0
31/01:30am 5.8 2.7 5.5 98 0.1 N 11 13 6 7 1017.6 - 0.0
31/01:00am 6.0 3.4 5.9 99 0.0 N 9 11 5 6 1017.7 - 0.0
31/12:30am 5.7 2.6 5.6 99 0.0 N 11 11 6 6 1017.8 - 0.0
31/12:00am 6.6 4.1 6.5 99 0.0 N 9 11 5 6 1018.2 1019.0 0.0
 
Date/Time
EST
Temp
°C
App
Temp
°C
Dew
Point
Rel
Hum
%
Delta-T
°C
Wind Press
QNH
hPa
Press
MSL
hPa
Rain
since 9 am
mm
Dir
 
Spd
km/h
Gust
km/h
Spd
kts
Gust
kts
30/11:30pm 6.4 3.8 6.3 99 0.0 N 9 11 5 6 1018.4 - 0.0
30/11:00pm 6.7 4.5 6.3 97 0.2 N 7 9 4 5 1018.4 - 0.0
30/10:30pm 7.3 5.3 7.0 98 0.1 N 7 7 4 4 1018.5 - 0.0
30/10:00pm 7.8 5.8 7.1 95 0.3 N 7 7 4 4 1018.6 - 0.0
30/09:30pm 8.4 5.8 7.8 96 0.3 NNW 11 11 6 6 1018.6 - 0.0
30/09:00pm 8.2 5.4 7.0 92 0.6 N 11 11 6 6 1018.6 1019.3 0.0
30/08:30pm 8.2 5.4 6.8 91 0.7 N 11 13 6 7 1018.6 - 0.0
30/08:00pm 8.5 5.6 6.6 88 0.9 N 11 11 6 6 1018.6 - 0.0
30/07:30pm 9.9 7.4 8.0 88 0.9 N 11 13 6 7 1018.6 - 0.0
30/07:00pm 10.4 7.9 8.0 85 1.2 N 11 11 6 6 1018.6 - 0.0
30/06:30pm 10.6 8.0 7.8 83 1.4 NNE 11 11 6 6 1018.6 - 0.0

Other Formats:

Comma delimited format used in spreadsheet applications
http://www.bom.gov.au/fwo/IDN60801/IDN60801.95721.axf

JavaScript Object Notation format (JSON) in row-major order
http://www.bom.gov.au/fwo/IDN60801/IDN60801.95721.json